Crew | Aerofun Virtual



 METAR AND TAF INFORMATION
METAR FOR EFJY
ADDS - METARS form results

(1941 UTC 21 July 2019)
Data provider http://aviationweather.gov/metar/data/
 
METAR text: EFJY 211920Z AUTO VRB02KT CAVOK 19/11 Q1016
Conditions at: EFJY (JYVASKYLA (MIL/C, FI) observed 1920 UTC 21 July 2019
Temperature: 19.0°C (66°F)
Dewpoint: 11.0°C (52°F) [RH = 60%]
Pressure (altimeter): 30.00 inches Hg (1016.0 mb)
Winds: variable direction winds at 2 MPH (2 knots; 1.0 m/s)
Visibility: 6 or more miles (10+ km)
Ceiling: ceiling and visibility are OK
Clouds: unknown
Weather: no significant weather observed at this time

METAR text: EFJY 211850Z AUTO 13004KT CAVOK 21/11 Q1016
Conditions at: EFJY (JYVASKYLA (MIL/C, FI) observed 1850 UTC 21 July 2019
Temperature: 21.0°C (70°F)
Dewpoint: 11.0°C (52°F) [RH = 53%]
Pressure (altimeter): 30.00 inches Hg (1016.0 mb)
Winds: from the SE (130 degrees) at 5 MPH (4 knots; 2.1 m/s)
Visibility: 6 or more miles (10+ km)
Ceiling: ceiling and visibility are OK
Clouds: unknown
Weather: no significant weather observed at this time

Forecast for: EFJY (JYVASKYLA (MIL/C, FI)
Text: TAF EFJY 211726Z 2118/2218 12005KT CAVOK
Forecast period: 1800 UTC 21 July 2019 to 1800 UTC 22 July 2019
Forecast type: FROM: standard forecast or significant change
Winds: from the ESE (120 degrees) at 6 MPH (5 knots; 2.6 m/s)
Visibility: 6 or more miles 10+ km)
Ceiling: unknown
Clouds: missing
Weather: NSW  (no significant weather)
Text: PROB30 2200/2203 3000 BR
Forecast period: 0000 to 0300 UTC 22 July 2019
Forecast type: PROBABLE: 30 percent likelihood of the following during this time
Visibility: 1.86 miles (2.99 km)
Ceiling: unknown
Clouds: missing
Weather: BR  (mist)

 AIRPORT MAP

 RUNWAY INFORMATION
Runway 12 Runway length 8533 ft Runway width 197 ft
Runway elevation 452 ft Runway displaced threshold 0 ft Runway heading 134
Runway 30 Runway length 8533 ft Runway width 197 ft
Runway elevation 407 ft Runway displaced threshold 0 ft Runway heading 314

 AIRPORT FREQUENCIES
Type APP Name APP Frequency 119.7 MHZ
Type ATIS Name ATIS Frequency 134.15 MHZ
Type TWR Name TWR Frequency 118 MHZ

 AIRPORT NEAR NAVIGATION AIDS
Type VOR-DME Name Luonet Frequency 112300 KHZ